Time;durP1;ratioP1;P1;durP2;ratioP2;P2;SDS_P1;SDS_P2;PMS_P1;PMS_P2;Temp;Humidity;BMP_temperature;BMP_pressure;BME280_temperature;BME280_humidity;BME280_pressure;Samples;Min_cycle;Max_cycle;Signal;HPM_P1;HPM_P2
2022/10/04 00:01:12;;;;;;;3.33;1.70;;;;;;;11.71;60.46;94871.31;4174820;28;20144;-65
2022/10/04 00:03:24;;;;;;;3.42;1.58;;;;;;;11.65;60.62;94868.34;4167616;28;20145;-65
2022/10/04 00:05:27;;;;;;;3.50;1.60;;;;;;;11.59;60.87;94881.28;4174247;28;20128;-66
2022/10/04 00:07:52;;;;;;;5.30;1.50;;;;;;;11.58;60.98;94877.03;4176109;28;20497;-65
2022/10/04 00:10:06;;;;;;;4.20;1.75;;;;;;;11.65;60.73;94878.03;4168390;28;20144;-63
2022/10/04 00:12:25;;;;;;;4.03;1.98;;;;;;;11.61;60.83;94884.56;4176529;28;20689;-66
2022/10/04 00:14:35;;;;;;;7.03;2.00;;;;;;;11.61;60.58;94880.13;4180353;28;20085;-65
2022/10/04 00:16:38;;;;;;;6.55;1.90;;;;;;;11.57;60.70;94885.88;4172835;28;20058;-65
2022/10/04 00:18:44;;;;;;;3.30;1.40;;;;;;;11.55;60.96;94877.34;4176882;28;20049;-65
2022/10/04 00:20:54;;;;;;;3.70;1.70;;;;;;;11.55;60.66;94874.72;4167417;28;20489;-64
2022/10/04 00:23:24;;;;;;;4.13;2.10;;;;;;;11.64;60.32;94871.16;4179681;28;20081;-67
2022/10/04 00:25:35;;;;;;;3.42;1.70;;;;;;;11.64;60.12;94868.53;4170218;28;20064;-64
2022/10/04 00:27:38;;;;;;;1.90;1.40;;;;;;;11.61;60.25;94858.34;4179689;28;20107;-63
2022/10/04 00:29:43;;;;;;;4.88;1.60;;;;;;;11.68;59.86;94861.97;4178266;28;20053;-63
2022/10/04 00:32:20;;;;;;;2.70;1.27;;;;;;;11.65;59.46;94857.84;4164789;28;20564;-63
2022/10/04 00:34:27;;;;;;;2.00;1.30;;;;;;;11.60;59.86;94859.34;4173782;28;20121;-65
2022/10/04 00:36:44;;;;;;;3.40;1.60;;;;;;;11.65;59.49;94863.09;4164562;28;20053;-67
2022/10/04 00:39:03;;;;;;;2.25;1.52;;;;;;;11.57;59.69;94855.22;4176106;28;20056;-64
2022/10/04 00:41:07;;;;;;;3.67;1.42;;;;;;;11.53;59.91;94848.66;4163470;28;20085;-66
2022/10/04 00:43:16;;;;;;;3.30;1.60;;;;;;;11.52;59.70;94847.00;4167916;28;20422;-63
2022/10/04 00:45:26;;;;;;;3.47;1.67;;;;;;;11.53;59.71;94846.03;4168684;28;20052;-67
2022/10/04 00:47:58;;;;;;;2.50;1.23;;;;;;;11.56;59.63;94845.69;4163155;28;20053;-65
2022/10/04 00:50:17;;;;;;;2.65;1.38;;;;;;;11.51;60.11;94836.66;4179906;28;20848;-66
2022/10/04 00:52:23;;;;;;;4.15;1.60;;;;;;;11.43;60.12;94833.06;4165885;28;20477;-67
2022/10/04 00:54:49;;;;;;;6.07;1.85;;;;;;;11.37;60.22;94836.31;4179268;28;20044;-65
2022/10/04 00:56:55;;;;;;;4.63;1.60;;;;;;;11.28;60.46;94834.66;4179347;28;20053;-64
2022/10/04 00:59:07;;;;;;;5.40;1.70;;;;;;;11.38;60.00;94834.50;4174979;28;20056;-64
2022/10/04 01:01:09;;;;;;;4.93;1.65;;;;;;;11.37;60.04;94833.69;4162029;28;20088;-64
2022/10/04 01:03:16;;;;;;;2.50;1.40;;;;;;;11.23;60.18;94831.72;4173494;28;20131;-62
2022/10/04 01:05:28;;;;;;;4.07;1.35;;;;;;;11.31;60.17;94830.88;4178195;28;20163;-64
2022/10/04 01:07:37;;;;;;;6.78;1.75;;;;;;;11.23;60.14;94826.47;4172299;28;20080;-64
2022/10/04 01:09:47;;;;;;;2.88;1.30;;;;;;;11.19;60.40;94825.94;4173172;28;20107;-64
2022/10/04 01:11:57;;;;;;;5.15;1.40;;;;;;;11.22;60.57;94828.25;4177125;28;20099;-64
2022/10/04 01:14:12;;;;;;;8.43;1.63;;;;;;;11.20;60.52;94822.34;4173851;28;20131;-65
2022/10/04 01:16:18;;;;;;;5.72;1.50;;;;;;;11.14;60.40;94824.78;4170345;28;20061;-67
2022/10/04 01:18:20;;;;;;;3.15;1.48;;;;;;;11.13;60.37;94823.16;4177603;28;20069;-65
2022/10/04 01:20:32;;;;;;;3.10;1.63;;;;;;;11.11;60.35;94825.09;4168207;28;20045;-64
2022/10/04 01:22:43;;;;;;;3.17;1.50;;;;;;;11.16;60.10;94828.06;4169791;28;20666;-65
2022/10/04 01:24:45;;;;;;;2.17;1.40;;;;;;;11.20;59.77;94826.75;4164412;28;20049;-66
2022/10/04 01:26:46;;;;;;;2.67;1.33;;;;;;;11.08;59.96;94828.88;4177387;28;20133;-64
2022/10/04 01:28:48;;;;;;;4.13;1.83;;;;;;;11.10;59.86;94826.06;4170542;28;20119;-65
2022/10/04 01:30:50;;;;;;;2.97;1.40;;;;;;;11.05;59.77;94819.50;4170605;28;20128;-65
2022/10/04 01:32:52;;;;;;;2.13;1.00;;;;;;;10.93;59.75;94826.03;4150209;28;20564;-65
2022/10/04 01:34:54;;;;;;;2.90;1.40;;;;;;;11.02;59.87;94830.31;4178712;28;20131;-64
2022/10/04 01:36:59;;;;;;;2.88;1.45;;;;;;;11.06;59.69;94820.34;4174731;28;20053;-64
2022/10/04 01:39:02;;;;;;;2.78;1.63;;;;;;;11.05;59.50;94826.56;4161873;28;20085;-64
2022/10/04 01:41:04;;;;;;;3.30;1.50;;;;;;;11.06;59.39;94825.59;4161225;28;20084;-66
2022/10/04 01:43:09;;;;;;;2.38;1.23;;;;;;;11.08;59.29;94821.00;4165095;28;20057;-66
2022/10/04 01:45:19;;;;;;;3.10;1.50;;;;;;;11.06;59.19;94818.53;4173169;28;20587;-65
2022/10/04 01:47:54;;;;;;;2.33;1.20;;;;;;;11.13;59.01;94826.59;4172428;28;20568;-64
2022/10/04 01:49:58;;;;;;;3.15;1.35;;;;;;;11.18;59.03;94828.72;4169155;28;20095;-67
2022/10/04 01:52:14;;;;;;;2.13;1.35;;;;;;;11.07;58.86;94828.03;4164139;28;20452;-64
2022/10/04 01:54:19;;;;;;;2.22;1.30;;;;;;;11.12;59.08;94824.13;4174955;28;20052;-62
2022/10/04 01:56:24;;;;;;;2.03;1.20;;;;;;;11.09;59.29;94822.63;4175653;28;20136;-63
2022/10/04 01:58:29;;;;;;;4.00;1.40;;;;;;;11.05;59.00;94830.00;4174301;28;20132;-64
2022/10/04 02:00:31;;;;;;;3.28;1.25;;;;;;;11.12;58.92;94824.13;4167926;28;20052;-62
2022/10/04 02:02:35;;;;;;;2.40;1.27;;;;;;;11.14;59.02;94830.03;4173251;28;20445;-64
2022/10/04 02:04:38;;;;;;;3.10;1.33;;;;;;;11.10;58.67;94834.78;4176252;28;20060;-65
2022/10/04 02:06:42;;;;;;;2.22;1.20;;;;;;;11.09;58.77;94840.97;4175649;28;20079;-62
2022/10/04 02:08:45;;;;;;;;;;;;;;;11.13;58.78;94837.06;4177633;28;20049;-63
2022/10/04 02:10:49;;;;;;;2.20;1.33;;;;;;;11.11;59.56;94828.53;4162046;28;20405;-64
2022/10/04 02:12:53;;;;;;;1.83;1.20;;;;;;;11.00;59.74;94840.13;4172738;28;20139;-63
2022/10/04 02:14:56;;;;;;;2.67;1.40;;;;;;;11.03;59.68;94839.00;4163454;28;20061;-63
2022/10/04 02:17:00;;;;;;;2.85;1.23;;;;;;;11.06;59.98;94842.13;4177210;28;20049;-62
2022/10/04 02:19:02;;;;;;;3.28;1.30;;;;;;;11.08;60.01;94839.34;4177337;28;20053;-64
2022/10/04 02:21:06;;;;;;;3.20;1.10;;;;;;;11.07;60.07;94842.94;4168138;28;20045;-64
2022/10/04 02:23:09;;;;;;;3.67;1.60;;;;;;;11.07;59.94;94837.69;4171066;28;20485;-64
2022/10/04 02:25:12;;;;;;;5.28;1.08;;;;;;;11.16;59.75;94841.97;4166066;28;20535;-63
2022/10/04 02:27:14;;;;;;;2.67;1.23;;;;;;;11.14;59.88;94843.13;4176948;28;20115;-63
2022/10/04 02:29:20;;;;;;;2.75;1.40;;;;;;;11.11;59.99;94841.66;4178642;28;20085;-64
2022/10/04 02:33:46;;;;;;;4.65;1.48;;;;;;;11.10;60.50;94852.28;4167827;28;20080;-66
2022/10/04 02:35:47;;;;;;;3.88;1.50;;;;;;;11.13;60.72;94857.22;4166753;28;20099;-65
2022/10/04 02:37:55;;;;;;;3.53;1.40;;;;;;;11.10;60.69;94847.03;4169667;28;20145;-64
2022/10/04 02:40:08;;;;;;;2.05;1.48;;;;;;;11.04;61.03;94844.09;4173611;28;20143;-65
2022/10/04 02:42:26;;;;;;;3.87;1.63;;;;;;;10.99;61.20;94842.91;4165187;28;20135;-64
2022/10/04 02:44:49;;;;;;;3.55;1.50;;;;;;;11.02;61.46;94850.47;4166664;28;20132;-66
2022/10/04 02:47:24;;;;;;;2.53;1.42;;;;;;;11.02;61.54;94859.16;4158304;28;20053;-64
2022/10/04 02:49:32;;;;;;;2.50;1.50;;;;;;;11.02;61.69;94855.72;4152924;28;20041;-67
2022/10/04 02:51:42;;;;;;;2.58;1.35;;;;;;;11.06;61.52;94860.47;4168413;28;20049;-65
2022/10/04 02:53:44;;;;;;;3.13;1.65;;;;;;;11.11;61.65;94856.56;4177013;28;20049;-65
2022/10/04 02:55:46;;;;;;;3.63;1.65;;;;;;;11.16;61.53;94859.53;4176817;28;20085;-64
2022/10/04 02:57:51;;;;;;;4.22;1.80;;;;;;;11.18;61.32;94871.50;4170757;28;20049;-64
2022/10/04 03:00:06;;;;;;;2.80;1.60;;;;;;;11.19;61.31;94865.28;4161495;28;20128;-66
2022/10/04 03:02:24;;;;;;;2.50;1.65;;;;;;;11.16;61.15;94862.97;4174853;28;20130;-65
2022/10/04 03:04:33;;;;;;;4.05;1.70;;;;;;;11.12;61.50;94877.41;4150432;28;20117;-64
2022/10/04 03:06:34;;;;;;;3.35;1.70;;;;;;;11.09;61.62;94866.38;4167579;28;20510;-64
2022/10/04 03:08:42;;;;;;;2.88;1.40;;;;;;;11.09;61.54;94866.38;4177730;28;20080;-65
2022/10/04 03:10:44;;;;;;;4.15;1.30;;;;;;;10.99;61.85;94869.97;4176677;28;20500;-65
2022/10/04 03:12:49;;;;;;;2.33;1.67;;;;;;;10.88;62.27;94867.59;4175526;28;20069;-65
2022/10/04 03:14:54;;;;;;;2.60;1.60;;;;;;;10.94;62.06;94864.34;4176240;28;20158;-63
2022/10/04 03:16:59;;;;;;;7.93;1.88;;;;;;;10.92;61.99;94870.75;4176468;28;20049;-64
2022/10/04 03:19:01;;;;;;;3.33;1.50;;;;;;;10.89;61.98;94874.50;4146761;28;20116;-64
2022/10/04 03:21:07;;;;;;;4.03;1.50;;;;;;;10.80;62.14;94870.19;4165489;28;20124;-64
2022/10/04 03:23:11;;;;;;;4.65;1.98;;;;;;;10.83;61.97;94864.63;4167576;28;20083;-63
2022/10/04 03:25:20;;;;;;;4.07;1.63;;;;;;;10.81;61.87;94869.22;4159308;28;20684;-64
2022/10/04 03:27:25;;;;;;;2.55;1.48;;;;;;;10.83;62.00;94872.50;4162508;28;20088;-65
2022/10/04 03:29:29;;;;;;;3.80;1.50;;;;;;;10.82;61.53;94866.44;4176122;28;20057;-66
2022/10/04 03:31:32;;;;;;;5.57;1.80;;;;;;;10.77;62.04;94891.47;4165241;28;20044;-63
2022/10/04 03:33:34;;;;;;;4.03;1.40;;;;;;;10.66;62.13;94890.75;4174791;28;20465;-65
2022/10/04 03:35:36;;;;;;;3.00;1.80;;;;;;;10.73;62.00;94882.25;4160220;28;20053;-64
2022/10/04 03:37:40;;;;;;;3.72;1.30;;;;;;;10.74;61.83;94883.91;4161628;28;20054;-65
2022/10/04 03:39:44;;;;;;;3.03;1.67;;;;;;;10.76;61.37;94887.22;4161385;28;20144;-63
2022/10/04 03:41:46;;;;;;;3.08;1.77;;;;;;;10.86;61.50;94893.13;4172891;28;20689;-66
2022/10/04 03:43:49;;;;;;;2.58;1.52;;;;;;;10.77;61.71;94891.47;4165464;28;20076;-65
2022/10/04 03:45:51;;;;;;;6.50;1.88;;;;;;;10.80;61.92;94885.94;4166448;28;20825;-67
2022/10/04 03:47:57;;;;;;;3.03;1.60;;;;;;;10.74;62.06;94897.03;4176746;28;20040;-64
2022/10/04 03:50:03;;;;;;;6.15;1.55;;;;;;;10.78;61.52;94893.13;4171878;28;20049;-65
2022/10/04 03:52:06;;;;;;;2.40;1.60;;;;;;;10.78;61.72;94880.03;4175277;28;20064;-67
2022/10/04 03:54:10;;;;;;;5.82;1.60;;;;;;;10.82;61.62;94884.78;4179113;28;20053;-64
2022/10/04 03:56:16;;;;;;;2.35;1.85;;;;;;;10.85;61.53;94891.50;4179338;28;20049;-64
2022/10/04 03:58:18;;;;;;;3.05;1.80;;;;;;;10.78;61.41;94890.50;4169468;28;20068;-62
2022/10/04 04:00:20;;;;;;;2.63;1.70;;;;;;;10.78;61.50;94893.13;4174607;28;20093;-64
2022/10/04 04:02:30;;;;;;;4.35;1.77;;;;;;;10.80;61.71;94896.41;4165104;28;20046;-64
2022/10/04 04:04:40;;;;;;;2.42;1.50;;;;;;;10.88;61.52;94893.00;4174284;28;20662;-65
2022/10/04 04:06:55;;;;;;;5.35;1.73;;;;;;;10.92;61.26;94892.53;4180679;28;20107;-64
2022/10/04 04:08:57;;;;;;;5.90;1.70;;;;;;;10.86;61.19;94898.38;4168144;28;20076;-65
2022/10/04 04:11:01;;;;;;;6.28;1.70;;;;;;;10.90;61.10;94904.16;4171966;28;20137;-65
2022/10/04 04:13:26;;;;;;;7.53;2.33;;;;;;;10.82;61.28;94900.50;4163107;28;20068;-67
2022/10/04 04:15:30;;;;;;;4.15;1.80;;;;;;;10.86;61.38;94903.63;4172531;28;20088;-58
2022/10/04 04:17:36;;;;;;;5.65;2.03;;;;;;;10.76;61.81;94911.59;4177426;28;20083;-60
2022/10/04 04:19:38;;;;;;;3.72;2.13;;;;;;;10.84;61.21;94916.91;4168652;28;20076;-60
2022/10/04 04:21:40;;;;;;;3.95;2.28;;;;;;;10.85;61.18;94915.09;4171030;28;20053;-59
2022/10/04 04:23:47;;;;;;;6.00;1.60;;;;;;;10.81;60.93;94916.38;4166975;28;20049;-60
2022/10/04 04:25:53;;;;;;;4.05;1.77;;;;;;;10.85;60.88;94918.53;4169329;28;20080;-60
2022/10/04 04:28:06;;;;;;;3.80;1.70;;;;;;;10.97;60.78;94932.22;4173331;28;20060;-60
2022/10/04 04:30:15;;;;;;;3.00;1.37;;;;;;;10.94;60.42;94919.41;4174006;28;20135;-59
2022/10/04 04:32:19;;;;;;;2.95;1.80;;;;;;;10.91;60.23;94929.41;4162536;28;20409;-58
2022/10/04 04:34:28;;;;;;;2.65;1.70;;;;;;;10.93;60.53;94923.00;4170977;28;20397;-61
2022/10/04 04:36:38;;;;;;;5.20;1.85;;;;;;;10.93;60.54;94930.88;4179069;28;20164;-58
2022/10/04 04:39:33;;;;;;;5.30;2.00;;;;;;;10.84;60.43;94927.38;4178717;28;20052;-59
2022/10/04 04:41:09;;;;;;;3.95;2.08;;;;;;;10.76;60.72;94922.09;4177685;28;20048;-57
2022/10/04 04:43:20;;;;;;;5.53;1.90;;;;;;;10.72;60.51;94930.41;4166158;28;20057;-57
2022/10/04 04:45:24;;;;;;;3.95;1.85;;;;;;;10.76;60.71;94918.66;4178205;28;20147;-58
2022/10/04 04:47:33;;;;;;;5.22;2.17;;;;;;;10.75;61.04;94922.25;4178704;28;20103;-56
2022/10/04 04:49:38;;;;;;;4.70;2.10;;;;;;;10.71;61.09;94931.38;4179042;28;20456;-60
2022/10/04 04:51:40;;;;;;;3.60;2.10;;;;;;;10.79;61.05;94926.19;4178646;28;20044;-57
2022/10/04 04:53:42;;;;;;;2.47;1.85;;;;;;;10.77;60.67;94920.28;4180255;28;20131;-59
2022/10/04 04:55:56;;;;;;;3.92;1.55;;;;;;;10.87;60.66;94931.50;4178020;28;20132;-58
2022/10/04 04:58:05;;;;;;;2.60;1.88;;;;;;;10.86;60.67;94930.69;4171100;28;20139;-59
2022/10/04 05:00:16;;;;;;;3.95;2.30;;;;;;;10.84;60.59;94934.41;4161307;28;20045;-59
2022/10/04 05:02:35;;;;;;;4.40;2.00;;;;;;;10.81;60.61;94942.59;4167140;28;20037;-60
2022/10/04 05:04:36;;;;;;;2.70;2.00;;;;;;;10.87;60.46;94931.50;4180035;28;20456;-60
2022/10/04 05:07:05;;;;;;;3.92;1.83;;;;;;;10.97;60.16;94932.22;4178342;28;20084;-58
2022/10/04 05:09:29;;;;;;;3.38;2.22;;;;;;;11.01;59.94;94945.81;4164857;28;20045;-59
2022/10/04 05:11:36;;;;;;;5.20;2.25;;;;;;;10.97;60.45;94936.59;4168101;28;20051;-59
2022/10/04 05:13:51;;;;;;;4.90;2.10;;;;;;;10.95;60.41;94939.41;4178262;28;20045;-60
2022/10/04 05:15:53;;;;;;;2.88;1.98;;;;;;;11.04;60.21;94943.72;4176327;28;20061;-62
2022/10/04 05:17:55;;;;;;;4.97;2.08;;;;;;;11.11;59.96;94941.28;4178458;28;20576;-61
2022/10/04 05:19:59;;;;;;;4.38;2.25;;;;;;;11.12;59.86;94949.97;4178035;28;20052;-59
2022/10/04 05:22:10;;;;;;;;;;;;;;;11.11;60.28;94943.91;4167795;28;20049;-61
2022/10/04 05:24:24;;;;;;;3.10;2.00;;;;;;;11.10;60.06;94946.66;4171350;28;20035;-59
2022/10/04 05:26:28;;;;;;;4.33;2.37;;;;;;;11.07;60.17;94942.56;4166680;28;20096;-57
2022/10/04 05:28:30;;;;;;;7.10;2.17;;;;;;;11.08;60.28;94944.22;4173263;28;20357;-59
2022/10/04 05:30:45;;;;;;;5.30;2.53;;;;;;;11.11;60.54;94948.34;4163135;28;20127;-61
2022/10/04 05:33:01;;;;;;;5.15;2.30;;;;;;;11.05;60.46;94950.56;4169420;28;20174;-58
2022/10/04 05:35:14;;;;;;;6.55;2.25;;;;;;;11.04;60.65;94946.34;4177797;28;20091;-61
2022/10/04 05:38:11;;;;;;;6.20;2.15;;;;;;;11.07;60.78;94947.81;4179274;28;20567;-61
2022/10/04 05:40:34;;;;;;;4.70;2.05;;;;;;;11.09;60.55;94950.28;4144471;28;20049;-58
2022/10/04 05:42:40;;;;;;;4.75;2.20;;;;;;;11.21;60.53;94960.34;4179110;28;20129;-60
2022/10/04 05:44:51;;;;;;;4.25;2.10;;;;;;;11.28;60.10;94953.50;4166984;28;20099;-59
2022/10/04 05:46:58;;;;;;;3.00;2.20;;;;;;;11.34;59.32;94962.53;4168363;28;20057;-62
2022/10/04 05:49:12;;;;;;;5.40;2.33;;;;;;;11.46;59.43;94960.44;4175609;28;20148;-61
2022/10/04 05:51:23;;;;;;;3.22;1.92;;;;;;;11.55;59.07;94972.63;4168271;28;20140;-60
2022/10/04 05:53:32;;;;;;;5.20;1.90;;;;;;;11.62;59.01;94972.81;4179007;28;20051;-60
2022/10/04 05:55:51;;;;;;;4.60;2.20;;;;;;;11.63;58.65;94977.88;4177218;28;20051;-56
2022/10/04 05:58:24;;;;;;;3.28;2.20;;;;;;;11.59;58.83;94978.38;4171262;28;20092;-59
2022/10/04 06:00:34;;;;;;;3.60;1.98;;;;;;;11.58;58.86;94985.44;4174003;28;20084;-59
2022/10/04 06:02:39;;;;;;;6.47;2.40;;;;;;;11.57;58.85;94991.66;4168230;28;20393;-58
2022/10/04 06:04:55;;;;;;;5.00;2.03;;;;;;;11.80;58.60;94986.66;4175325;28;20091;-61
2022/10/04 06:07:06;;;;;;;3.47;1.98;;;;;;;11.85;58.34;94989.63;4178439;28;20053;-60
2022/10/04 06:09:23;;;;;;;5.53;1.85;;;;;;;11.94;57.88;94992.28;4178766;28;20055;-60
2022/10/04 06:11:33;;;;;;;4.07;2.00;;;;;;;11.87;58.07;95000.81;4177094;28;20087;-63
2022/10/04 06:13:53;;;;;;;7.43;2.25;;;;;;;11.82;57.68;94992.56;4169640;28;20061;-60
2022/10/04 06:16:04;;;;;;;4.30;2.55;;;;;;;11.91;58.03;95001.31;4161606;28;20422;-60
2022/10/04 06:18:27;;;;;;;5.20;2.72;;;;;;;11.91;57.92;95003.94;4171616;28;20053;-59
2022/10/04 06:20:41;;;;;;;6.00;3.10;;;;;;;12.00;57.78;95012.66;4174288;28;20060;-60
2022/10/04 06:22:47;;;;;;;4.50;2.47;;;;;;;11.94;57.44;95008.88;4166219;28;20133;-58
2022/10/04 06:24:56;;;;;;;3.65;1.90;;;;;;;11.95;57.48;95010.50;4176697;28;20640;-60
2022/10/04 06:27:03;;;;;;;3.50;2.10;;;;;;;12.05;57.10;95013.03;4164467;28;20614;-59
2022/10/04 06:29:16;;;;;;;7.78;2.30;;;;;;;12.08;57.09;95013.50;4164157;28;20088;-60
2022/10/04 06:31:23;;;;;;;5.93;2.47;;;;;;;12.18;56.74;95013.38;4175292;28;20472;-60
2022/10/04 06:34:03;;;;;;;5.45;2.65;;;;;;;12.00;57.21;95023.16;4166013;28;20057;-60
2022/10/04 06:36:32;;;;;;;2.70;1.70;;;;;;;11.93;57.05;95011.66;4168688;28;20153;-60
2022/10/04 06:38:47;;;;;;;3.83;1.88;;;;;;;11.82;57.21;95024.06;4163475;28;20049;-64
2022/10/04 06:41:18;;;;;;;4.15;1.92;;;;;;;11.79;57.36;95013.06;4176288;28;20103;-58
2022/10/04 06:43:23;;;;;;;3.30;1.95;;;;;;;11.89;57.59;95024.28;4176853;28;20063;-59
2022/10/04 06:45:52;;;;;;;2.80;1.98;;;;;;;11.57;58.24;95022.31;4175919;28;20128;-60
2022/10/04 06:48:03;;;;;;;4.57;2.50;;;;;;;11.70;58.43;95030.56;4165943;28;20049;-60
2022/10/04 06:50:32;;;;;;;4.97;2.35;;;;;;;11.72;58.37;95031.22;4168129;28;20060;-61
2022/10/04 06:52:49;;;;;;;6.35;2.17;;;;;;;11.75;57.87;95036.19;4162468;28;20404;-59
2022/10/04 06:55:15;;;;;;;5.25;2.17;;;;;;;11.81;57.49;95032.94;4162432;28;20486;-60
2022/10/04 06:57:35;;;;;;;6.85;2.50;;;;;;;11.94;57.53;95044.78;4173527;28;20084;-59
2022/10/04 06:59:58;;;;;;;5.55;2.17;;;;;;;12.00;57.61;95044.16;4168869;28;20045;-61
2022/10/04 07:02:11;;;;;;;5.90;2.88;;;;;;;12.09;57.91;95036.16;4162474;28;20057;-58
2022/10/04 07:04:57;;;;;;;6.78;2.55;;;;;;;12.26;57.55;95037.03;4165542;28;20040;-61
2022/10/04 07:07:25;;;;;;;5.43;2.40;;;;;;;11.99;57.72;95047.78;4174050;28;20045;-59
2022/10/04 07:09:27;;;;;;;6.10;3.33;;;;;;;12.10;57.81;95039.59;4169522;28;20049;-62
2022/10/04 07:11:41;;;;;;;6.10;3.55;;;;;;;12.27;57.75;95045.72;4172863;28;20084;-60
2022/10/04 07:14:02;;;;;;;5.63;3.03;;;;;;;12.29;57.72;95059.53;4166807;28;20052;-60
2022/10/04 07:16:16;;;;;;;4.60;2.22;;;;;;;12.26;56.57;95051.94;4161934;28;20138;-60
2022/10/04 07:18:23;;;;;;;3.80;2.28;;;;;;;12.32;55.81;95047.88;4177658;28;20045;-60
2022/10/04 07:20:30;;;;;;;5.13;3.17;;;;;;;12.04;57.25;95045.50;4148441;28;20081;-58
2022/10/04 07:22:44;;;;;;;6.70;2.28;;;;;;;12.38;56.52;95047.22;4163853;28;20534;-60
2022/10/04 07:25:04;;;;;;;6.60;3.13;;;;;;;12.43;56.01;95051.03;4175130;28;20569;-59
2022/10/04 07:27:09;;;;;;;5.38;2.22;;;;;;;12.64;55.71;95045.28;4176292;28;20049;-61
2022/10/04 07:29:19;;;;;;;3.35;2.28;;;;;;;12.73;55.29;95058.44;4165912;28;20095;-58
2022/10/04 07:31:25;;;;;;;4.85;2.20;;;;;;;12.68;54.49;95062.38;4169938;28;20133;-58
2022/10/04 07:33:29;;;;;;;4.47;1.90;;;;;;;12.59;53.93;95065.97;4167929;28;20049;-60
2022/10/04 07:35:47;;;;;;;2.45;1.73;;;;;;;12.57;54.43;95059.25;4163469;28;20049;-61
2022/10/04 07:37:56;;;;;;;4.35;1.65;;;;;;;12.65;54.49;95054.00;4163300;28;20140;-60
2022/10/04 07:40:07;;;;;;;7.97;2.10;;;;;;;12.82;53.70;95065.34;4172827;28;20489;-62
2022/10/04 07:42:20;;;;;;;3.92;2.25;;;;;;;12.90;53.67;95057.44;4179167;28;20143;-61
2022/10/04 07:44:35;;;;;;;6.38;3.00;;;;;;;12.71;53.66;95069.09;4179982;28;20064;-61
2022/10/04 07:46:48;;;;;;;5.13;2.70;;;;;;;12.72;54.78;95070.75;4168890;28;20057;-61
2022/10/04 07:48:49;;;;;;;3.25;2.33;;;;;;;12.76;54.60;95066.00;4175261;28;20053;-59
2022/10/04 07:51:34;;;;;;;11.07;4.10;;;;;;;12.63;54.72;95062.06;4167668;28;20071;-59
2022/10/04 07:54:04;;;;;;;4.78;2.45;;;;;;;12.59;54.27;95076.50;4188703;28;20165;-59
2022/10/04 07:56:08;;;;;;;5.25;2.60;;;;;;;12.56;54.71;95071.56;4146506;28;20049;-60
2022/10/04 07:58:34;;;;;;;5.68;2.42;;;;;;;12.57;54.11;95080.28;4171695;28;20571;-66
2022/10/04 08:01:20;;;;;;;3.63;2.17;;;;;;;12.52;53.80;95075.50;4175324;28;20099;-65
2022/10/04 08:03:22;;;;;;;2.75;1.58;;;;;;;12.62;53.22;95073.53;4173077;28;20525;-68
2022/10/04 08:05:49;;;;;;;3.55;2.00;;;;;;;12.72;52.84;95091.78;4179020;28;20080;-67
2022/10/04 08:08:05;;;;;;;3.08;1.98;;;;;;;12.69;52.58;95079.81;4169933;28;20116;-65
2022/10/04 08:10:13;;;;;;;4.97;3.28;;;;;;;12.20;54.12;95082.31;4178720;28;20124;-67
2022/10/04 08:12:36;;;;;;;6.00;3.38;;;;;;;12.08;54.82;95079.16;4180762;28;20083;-68
2022/10/04 08:14:57;;;;;;;6.75;3.28;;;;;;;12.05;55.12;95089.16;4166917;28;20087;-66
2022/10/04 08:17:06;;;;;;;4.47;2.50;;;;;;;11.86;55.39;95083.16;4178050;28;20424;-64
2022/10/04 08:19:39;;;;;;;5.47;2.75;;;;;;;12.20;54.20;95078.88;4178133;28;20051;-65
2022/10/04 08:21:48;;;;;;;3.97;2.35;;;;;;;12.51;53.27;95079.09;4179104;28;20084;-63
2022/10/04 08:24:02;;;;;;;3.90;1.70;;;;;;;12.63;52.50;95087.53;4178242;28;20702;-65
2022/10/04 08:26:06;;;;;;;2.47;1.52;;;;;;;12.68;52.33;95078.16;4179055;28;20190;-66
2022/10/04 08:31:02;;;;;;;3.28;1.60;;;;;;;13.08;51.90;95076.53;4164598;28;20076;-66
2022/10/04 08:33:10;;;;;;;;;;;;;;;13.19;51.37;95082.44;4177964;28;20048;-65
2022/10/04 08:35:31;;;;;;;3.10;1.38;;;;;;;13.40;50.78;95071.41;4176430;28;19976;-58
2022/10/04 08:38:05;;;;;;;3.72;1.80;;;;;;;13.60;50.90;95071.88;4172105;28;20083;-61
2022/10/04 08:40:10;;;;;;;2.90;1.73;;;;;;;13.77;50.36;95065.59;4163840;28;20067;-60
2022/10/04 08:42:40;;;;;;;2.30;1.60;;;;;;;13.88;49.81;95067.84;4179198;28;20045;-59
2022/10/04 08:45:05;;;;;;;5.65;1.83;;;;;;;14.16;50.08;95072.66;4179742;28;20080;-60
2022/10/04 08:47:16;;;;;;;2.63;2.03;;;;;;;14.30;49.26;95064.03;4178597;28;20071;-60
2022/10/04 08:49:47;;;;;;;4.32;1.70;;;;;;;14.06;50.13;95074.69;4179535;28;20447;-69
2022/10/04 08:52:20;;;;;;;3.85;1.52;;;;;;;14.38;49.39;95072.88;4178948;28;20421;-66
2022/10/04 08:54:45;;;;;;;3.97;1.55;;;;;;;14.49;48.44;95075.94;4162812;28;20091;-66
2022/10/04 08:57:05;;;;;;;4.40;1.60;;;;;;;14.38;48.24;95084.25;4161455;28;20111;-68
2022/10/04 08:59:26;;;;;;;3.83;1.80;;;;;;;14.19;48.82;95084.69;4176073;28;20148;-66
2022/10/04 09:02:06;;;;;;;3.25;2.20;;;;;;;13.34;50.89;95075.56;4169954;28;20102;-65
2022/10/04 09:04:40;;;;;;;3.70;1.70;;;;;;;13.30;51.18;95074.25;4177654;28;20500;-66
2022/10/04 09:06:48;;;;;;;4.45;2.22;;;;;;;13.68;50.48;95071.84;4165333;28;20068;-65
2022/10/04 09:09:18;;;;;;;7.50;3.13;;;;;;;13.64;50.74;95079.28;4164817;28;20099;-66
2022/10/04 09:11:50;;;;;;;4.35;2.05;;;;;;;13.86;49.93;95066.38;4178278;28;20080;-65
2022/10/04 09:14:07;;;;;;;6.22;1.73;;;;;;;13.87;50.53;95065.38;4178962;28;20064;-62
2022/10/04 09:16:18;;;;;;;5.07;2.55;;;;;;;13.85;49.96;95073.47;4125185;28;1148651;-60
2022/10/04 09:18:40;;;;;;;7.75;1.90;;;;;;;13.74;50.75;95073.81;4179542;28;20052;-59
2022/10/04 09:21:10;;;;;;;3.30;1.50;;;;;;;14.02;50.09;95068.94;4178279;28;20103;-62
2022/10/04 09:23:30;;;;;;;3.65;2.00;;;;;;;13.68;50.53;95085.00;4177321;28;20174;-61
2022/10/04 09:25:50;;;;;;;6.65;2.40;;;;;;;13.36;51.42;95084.09;4162678;28;20054;-61
2022/10/04 09:28:07;;;;;;;9.93;3.38;;;;;;;13.37;51.65;95085.72;4163293;28;20057;-59
2022/10/04 09:30:17;;;;;;;3.25;2.13;;;;;;;13.49;52.11;95084.41;4166069;28;20049;-62
2022/10/04 09:32:27;;;;;;;4.47;2.47;;;;;;;13.26;51.29;95084.22;4165924;28;20072;-59
2022/10/04 09:34:44;;;;;;;2.17;1.70;;;;;;;13.56;51.43;95083.75;4179135;28;20131;-60
2022/10/04 09:37:07;;;;;;;4.70;1.52;;;;;;;14.03;49.77;95080.31;4177832;28;20464;-60
2022/10/04 09:39:19;;;;;;;3.67;2.00;;;;;;;14.14;49.29;95072.03;4163222;28;20049;-61
2022/10/04 09:41:46;;;;;;;6.03;2.28;;;;;;;13.69;50.67;95074.31;4175316;28;20049;-59
2022/10/04 09:44:15;;;;;;;4.28;2.85;;;;;;;13.75;50.66;95078.09;4167691;28;20083;-61
2022/10/04 09:46:46;;;;;;;3.72;2.35;;;;;;;13.84;51.27;95073.63;4175301;28;20045;-59
2022/10/04 09:49:04;;;;;;;4.72;2.03;;;;;;;14.44;50.06;95074.84;4178563;28;20520;-62
2022/10/04 09:51:16;;;;;;;5.03;1.95;;;;;;;14.41;49.26;95077.81;4167355;28;20713;-59
2022/10/04 09:53:36;;;;;;;2.97;1.90;;;;;;;14.52;48.83;95065.06;4177671;28;20053;-60
2022/10/04 09:55:54;;;;;;;4.47;2.10;;;;;;;14.30;49.29;95077.22;4178147;28;20110;-59
2022/10/04 09:58:28;;;;;;;4.00;2.35;;;;;;;14.08;49.54;95073.50;4174354;28;20092;-61
2022/10/04 10:00:37;;;;;;;3.53;1.60;;;;;;;14.13;49.66;95070.38;4177302;28;20053;-59
2022/10/04 10:02:57;;;;;;;3.40;1.63;;;;;;;14.01;49.82;95082.28;4171086;28;20064;-62
2022/10/04 10:05:17;;;;;;;3.05;1.85;;;;;;;13.79;50.84;95076.78;4174954;28;20049;-59
2022/10/04 10:07:37;;;;;;;2.50;1.60;;;;;;;14.15;50.09;95076.28;4178942;28;20045;-60
2022/10/04 10:15:07;;;;;;;4.00;1.75;;;;;;;15.02;47.88;95073.47;4168123;28;20048;-61
2022/10/04 10:17:14;;;;;;;2.35;1.77;;;;;;;14.27;48.77;95077.56;4166086;28;20136;-62
2022/10/04 10:19:34;;;;;;;7.72;2.40;;;;;;;14.38;49.31;95080.78;4163337;28;20658;-61
2022/10/04 10:21:46;;;;;;;3.00;2.10;;;;;;;14.73;49.02;95080.28;4178166;28;20135;-59
2022/10/04 10:23:56;;;;;;;3.92;2.53;;;;;;;14.66;49.34;95071.41;4163892;28;20064;-62
2022/10/04 10:26:13;;;;;;;6.30;2.97;;;;;;;14.56;49.42;95076.09;4166560;28;20045;-62
2022/10/04 10:28:15;;;;;;;4.72;2.22;;;;;;;14.61;49.86;95075.59;4178722;28;20056;-60
2022/10/04 10:30:37;;;;;;;4.47;1.77;;;;;;;14.96;49.03;95071.53;4166129;28;20120;-59
2022/10/04 10:32:57;;;;;;;4.10;2.00;;;;;;;14.90;48.83;95077.53;4163493;28;20148;-61
2022/10/04 10:35:41;;;;;;;2.65;1.63;;;;;;;15.17;47.08;95083.28;4162109;28;20076;-61